Latest Coastal Weather Observations for Marion Reef

IDQ60701

Issued at 1:13 pm EST Saturday 1 October 2016 (issued every 10 minutes, with the page automatically refreshed every 10 minutes)

About coastal observations | Map of coastal stations | Coastal observations for QLD | Marine services | Other Formats
Station Details ID: 200704 Name: MARION REEF Lat: -19.10 Lon: 152.39 Height: 2.0 m
Data from the previous 72 hours. | See also: Recent months for locations in Queensland
Date/Time
EST
Temp
°C
Wind Pressure Rain since
9am
mm
Weather Cloud Vis
km
Sea
Height
m
Swell
Dir  Spd
kts
Gust
kts
hPa Trend Height
m
Period
s
Dir
01/01:00pm 26.8 N 6 6 1013.7 - - - - - - - - -
01/12:30pm 26.6 N 6 8 1014.3 - - - - - - - - -
01/12:00pm 26.5 NNW 7 8 1014.6 - - - - - - - - -
01/11:30am 26.0 N 7 8 1014.7 - - - - - - - - -
01/11:00am 25.9 N 8 9 1015.1 - - - - - - - - -
01/10:30am 25.6 N 8 10 1015.4 - - - - - - - - -
01/10:00am 25.5 NNE 10 12 1015.1 - - - - - - - - -
01/09:30am 25.4 NNE 13 14 1015.0 - - - - - - - - -
01/09:00am 25.3 NNE 11 12 1015.1 - - - - - - - - -
01/08:30am 25.1 NNE 10 11 1015.1 - - - - - - - - -
01/08:00am 25.3 NNE 10 11 1015.0 - - - - - - - - -
01/07:30am 25.0 NNE 9 10 1014.9 - - - - - - - - -
01/07:00am 25.0 NNE 8 10 1014.5 - - - - - - - - -
01/06:30am 24.8 NNE 9 11 1013.9 - - - - - - - - -
01/06:00am 24.9 NNE 10 11 1013.3 - - - - - - - - -
01/05:30am 24.9 NNE 9 11 1013.1 - - - - - - - - -
01/05:00am 24.9 NNE 9 11 1012.9 - - - - - - - - -
01/04:30am 24.9 NNE 9 11 1012.5 - - - - - - - - -
01/04:00am 24.8 NNE 9 11 1012.0 - - - - - - - - -
01/03:30am 25.0 NNE 9 10 1011.6 - - - - - - - - -
01/03:00am 24.8 NNE 8 9 1011.4 - - - - - - - - -
01/02:30am 24.8 NNE 9 9 1011.4 - - - - - - - - -
01/02:00am 24.9 NNE 8 9 1011.4 - - - - - - - - -
01/01:30am 25.0 NNE 8 9 1011.7 - - - - - - - - -
01/01:00am 25.2 NNE 8 9 1011.7 - - - - - - - - -
01/12:30am 25.1 NNE 8 9 1012.0 - - - - - - - - -
01/12:00am 25.0 NNE 8 10 1011.9 - - - - - - - - -
 
Date/Time
EST
Temp
°C
Wind Pressure Rain since
9am
mm
Weather Cloud Vis
km
Sea
Height
m
Swell
Dir  Spd
kts
Gust
kts
hPa Trend Height
m
Period
s
Dir
30/11:30pm 25.1 N 9 11 1012.3 - - - - - - - - -
30/11:00pm 25.2 N 10 11 1012.4 - - - - - - - - -
30/10:30pm 25.1 N 11 12 1012.7 - - - - - - - - -
30/10:00pm 25.3 N 10 11 1012.8 - - - - - - - - -
30/09:30pm 25.2 N 9 11 1013.0 - - - - - - - - -
30/09:00pm 25.1 N 10 11 1012.6 - - - - - - - - -
30/08:30pm 25.1 N 9 11 1012.3 - - - - - - - - -
30/08:00pm 25.1 N 9 11 1011.9 - - - - - - - - -
30/07:30pm 25.3 N 9 11 1011.7 - - - - - - - - -
30/07:00pm 25.2 N 8 9 1011.4 - - - - - - - - -
30/06:30pm 25.3 N 8 10 1011.4 - - - - - - - - -
30/06:00pm 25.2 N 9 10 1011.1 - - - - - - - - -
30/05:30pm 25.7 NNW 8 9 1011.0 - - - - - - - - -
30/05:00pm 25.6 NNW 9 11 1010.8 - - - - - - - - -
30/04:30pm 25.9 NNW 11 13 1010.5 - - - - - - - - -
30/04:00pm 26.0 NNW 10 14 1010.3 - - - - - - - - -
30/03:30pm 26.0 N 11 12 1010.1 - - - - - - - - -
30/03:00pm 25.7 NNW 12 15 1010.1 - - - - - - - - -
30/02:30pm 25.6 NNW 13 15 1010.3 - - - - - - - - -
30/02:00pm 25.6 N 13 15 1010.2 - - - - - - - - -
30/01:30pm 25.4 N 14 16 1010.4 - - - - - - - - -
30/01:00pm 25.5 N 16 19 1010.6 - - - - - - - - -
30/12:30pm 25.5 N 15 18 1011.1 - - - - - - - - -
30/12:00pm 25.6 N 16 19 1011.2 - - - - - - - - -
30/11:30am 25.3 N 17 19 1011.5 - - - - - - - - -
30/11:00am 25.3 N 16 19 1011.8 - - - - - - - - -
30/10:30am 25.1 N 18 20 1011.7 - - - - - - - - -
30/10:00am 25.1 N 18 21 1011.9 - - - - - - - - -
30/09:30am 24.9 N 17 20 1012.0 - - - - - - - - -
30/09:00am 24.6 N 18 21 1011.9 - - - - - - - - -
30/08:30am 24.8 N 18 21 1011.9 - - - - - - - - -
30/08:00am 24.7 N 16 18 1011.6 - - - - - - - - -
30/07:30am 24.7 N 16 19 1011.6 - - - - - - - - -
30/07:00am 24.6 N 16 17 1011.0 - - - - - - - - -
30/06:30am 24.7 NNE 15 17 1010.8 - - - - - - - - -
30/06:00am 24.4 NNE 13 14 1010.4 - - - - - - - - -
30/05:30am 24.4 N 9 10 1010.6 - - - - - - - - -
30/05:00am 24.2 N 8 9 1010.8 - - - - - - - - -
30/04:30am 24.3 N 8 9 1010.6 - - - - - - - - -
30/04:00am 24.3 N 8 9 1010.4 - - - - - - - - -
30/03:30am 24.2 N 8 10 1010.4 - - - - - - - - -
30/03:00am 24.1 N 9 11 1010.3 - - - - - - - - -
30/02:30am 24.3 N 12 14 1010.2 - - - - - - - - -
30/02:00am 24.4 NNE 11 14 1010.5 - - - - - - - - -
30/01:30am 24.2 N 12 15 1010.6 - - - - - - - - -
30/01:00am 24.2 N 13 16 1010.8 - - - - - - - - -
30/12:30am 24.3 N 14 16 1011.0 - - - - - - - - -
30/12:00am 24.5 N 15 19 1011.0 - - - - - - - - -
 
Date/Time
EST
Temp
°C
Wind Pressure Rain since
9am
mm
Weather Cloud Vis
km
Sea
Height
m
Swell
Dir  Spd
kts
Gust
kts
hPa Trend Height
m
Period
s
Dir
29/11:30pm 24.3 NNE 16 19 1011.4 - - - - - - - - -
29/11:00pm 24.3 NNE 17 19 1011.5 - - - - - - - - -
29/10:30pm 24.4 NNE 16 18 1011.7 - - - - - - - - -
29/10:00pm 24.2 NNE 15 18 1011.8 - - - - - - - - -
29/09:30pm 24.3 NNE 15 17 1011.7 - - - - - - - - -
29/09:00pm 24.5 N 15 17 1011.6 - - - - - - - - -
29/08:30pm 24.6 NNE 13 16 1011.8 - - - - - - - - -
29/08:00pm 24.4 N 12 15 1011.6 - - - - - - - - -
29/07:30pm 24.7 N 12 14 1011.1 - - - - - - - - -
29/07:00pm 24.2 NNE 12 14 1010.8 - - - - - - - - -
29/06:30pm 24.3 N 10 12 1010.7 - - - - - - - - -
29/06:00pm 24.3 NNE 11 12 1010.4 - - - - - - - - -
29/05:30pm 24.4 N 9 11 1010.2 - - - - - - - - -
29/05:00pm 24.6 NNE 10 13 1009.9 - - - - - - - - -
29/04:30pm 24.6 NNE 10 11 1009.7 - - - - - - - - -
29/04:00pm 24.6 NNE 9 11 1009.5 - - - - - - - - -
29/03:30pm 24.5 NNE 8 10 1009.4 - - - - - - - - -
29/03:00pm 25.1 NNE 7 8 1009.5 - - - - - - - - -
29/02:30pm 25.3 NNE 7 9 1009.8 - - - - - - - - -
29/02:00pm 25.5 NE 8 10 1009.8 - - - - - - - - -
29/01:30pm 25.7 NE 9 11 1009.9 - - - - - - - - -
29/01:00pm 25.8 NE 9 11 1010.2 - - - - - - - - -
29/12:30pm 25.4 NNE 7 9 1011.0 - - - - - - - - -
29/12:00pm 25.2 NNE 7 9 1011.2 - - - - - - - - -
29/11:30am 25.8 NNE 7 9 1011.6 - - - - - - - - -
29/11:00am 25.4 NE 10 13 1011.6 - - - - - - - - -
29/10:30am 24.9 NNE 11 13 1011.9 - - - - - - - - -
29/10:00am 25.3 NNE 11 13 1012.1 - - - - - - - - -
29/09:30am 25.3 NNE 9 12 1012.5 - - - - - - - - -
29/09:00am 25.2 NE 8 10 1012.7 - - - - - - - - -
29/08:30am 25.0 NE 9 11 1013.0 - - - - - - - - -
29/08:00am 24.6 ENE 10 13 1012.7 - - - - - - - - -
29/07:30am 24.4 ENE 10 12 1012.5 - - - - - - - - -
29/07:00am 24.3 NE 11 14 1012.1 - - - - - - - - -
29/06:30am 24.2 NE 10 12 1012.0 - - - - - - - - -
29/06:00am 23.8 ENE 10 12 1011.7 - - - - - - - - -
29/05:30am 23.7 ENE 9 12 1011.7 - - - - - - - - -
29/05:00am 23.7 ENE 8 11 1011.4 - - - - - - - - -
29/04:30am 23.5 NE 9 12 1011.2 - - - - - - - - -
29/04:00am 23.5 ENE 7 13 1011.4 - - - - - - - - -
29/03:30am 23.4 E 9 12 1011.1 - - - - - - - - -
29/03:00am 23.6 ENE 9 11 1010.8 - - - - - - - - -
29/02:30am 23.5 ENE 10 12 1011.1 - - - - - - - - -
29/02:00am 23.7 E 9 11 1011.3 - - - - - - - - -
29/01:30am 23.6 ENE 10 13 1011.7 - - - - - - - - -
29/01:00am 23.7 ENE 9 11 1011.8 - - - - - - - - -
29/12:30am 23.7 ENE 9 12 1012.6 - - - - - - - - -
29/12:00am 23.7 E 10 13 1012.9 - - - - - - - - -
 
Date/Time
EST
Temp
°C
Wind Pressure Rain since
9am
mm
Weather Cloud Vis
km
Sea
Height
m
Swell
Dir  Spd
kts
Gust
kts
hPa Trend Height
m
Period
s
Dir
28/11:30pm 24.0 E 11 13 1013.2 - - - - - - - - -
28/11:00pm 23.9 E 11 14 1013.0 - - - - - - - - -
28/10:30pm 24.0 E 10 13 1013.2 - - - - - - - - -
28/10:00pm 24.1 E 11 13 1013.1 - - - - - - - - -
28/09:30pm 24.3 ESE 10 13 1013.4 - - - - - - - - -
28/09:00pm 24.2 ESE 9 12 1013.3 - - - - - - - - -
28/08:30pm 24.1 ESE 10 12 1013.3 - - - - - - - - -
28/08:00pm 24.1 ESE 9 13 1013.1 - - - - - - - - -
28/07:30pm 24.4 ESE 10 13 1013.0 - - - - - - - - -
28/07:00pm 24.3 ESE 10 12 1012.7 - - - - - - - - -
28/06:30pm 24.1 ESE 10 11 1012.2 - - - - - - - - -
28/06:00pm 24.4 ESE 10 13 1011.9 - - - - - - - - -
28/05:30pm 24.6 SE 10 12 1011.7 - - - - - - - - -
28/05:00pm 24.3 SE 12 14 1011.5 - - - - - - - - -
28/04:30pm 24.3 SE 11 14 1011.4 - - - - - - - - -
28/04:00pm 24.4 SE 11 13 1011.2 - - - - - - - - -
28/03:30pm 24.4 SE 11 14 1011.3 - - - - - - - - -
28/03:00pm 24.5 SE 11 13 1011.4 - - - - - - - - -
28/02:30pm 24.5 SE 10 12 1011.7 - - - - - - - - -
28/02:00pm 24.8 SE 10 11 1011.7 - - - - - - - - -
28/01:30pm 24.4 SE 10 12 1012.4 - - - - - - - - -

Other Formats:

Comma delimited format used in spreadsheet applications
http://www.bom.gov.au/fwo/IDQ60701/IDQ60701.94298.axf

JavaScript Object Notation format (JSON) in row-major order
http://www.bom.gov.au/fwo/IDQ60701/IDQ60701.94298.json